createdAt,value
2023-03-02T00:00:43.037Z,100.00
2023-03-02T00:05:56.309Z,100.00
2023-03-02T00:11:02.500Z,100.00
2023-03-02T00:16:09.708Z,100.00
2023-03-02T00:21:15.409Z,100.00
2023-03-02T00:26:21.429Z,100.00
2023-03-02T00:31:27.494Z,100.00
2023-03-02T00:36:33.633Z,100.00
2023-03-02T00:41:39.393Z,100.00
2023-03-02T00:46:45.528Z,100.00
2023-03-02T00:51:51.268Z,99.91
2023-03-02T00:56:57.368Z,99.94
2023-03-02T01:02:04.271Z,99.98
2023-03-02T01:07:12.726Z,100.00
2023-03-02T01:12:18.643Z,100.00
2023-03-02T01:17:25.334Z,100.00
2023-03-02T01:22:30.887Z,100.00
2023-03-02T01:27:37.037Z,100.00
2023-03-02T01:32:42.811Z,100.00
2023-03-02T01:37:48.642Z,100.00
2023-03-02T01:43:02.559Z,100.00
2023-03-02T01:48:11.175Z,100.00
2023-03-02T01:53:18.820Z,100.00
2023-03-02T01:58:25.777Z,100.00
2023-03-02T02:03:32.385Z,100.00
2023-03-02T02:08:39.272Z,100.00
2023-03-02T02:13:46.153Z,100.00
2023-03-02T02:18:52.661Z,100.00
2023-03-02T02:24:07.646Z,100.00
2023-03-02T02:29:19.040Z,100.00
2023-03-02T02:34:30.656Z,100.00
2023-03-02T02:39:40.835Z,100.00
2023-03-02T02:44:47.201Z,100.00
2023-03-02T02:49:54.844Z,100.00
2023-03-02T02:55:00.911Z,100.00
2023-03-02T03:00:15.108Z,100.00
2023-03-02T03:05:20.869Z,100.00
2023-03-02T03:10:35.087Z,100.00
2023-03-02T03:15:41.092Z,100.00
2023-03-02T03:20:46.841Z,100.00
2023-03-02T03:25:52.652Z,100.00
2023-03-02T03:30:58.879Z,100.00
2023-03-02T03:36:06.126Z,100.00
2023-03-02T03:41:13.091Z,100.00
2023-03-02T03:46:19.624Z,100.00
2023-03-02T03:51:26.551Z,100.00
2023-03-02T03:56:36.344Z,100.00
2023-03-02T04:01:45.690Z,100.00
2023-03-02T04:06:52.856Z,100.00
2023-03-02T04:12:00.367Z,100.00
2023-03-02T04:17:07.573Z,100.00
2023-03-02T04:22:20.041Z,100.00
2023-03-02T04:27:26.346Z,100.00
2023-03-02T04:32:32.790Z,100.00
2023-03-02T04:37:39.629Z,100.00
2023-03-02T04:42:47.242Z,100.00
2023-03-02T04:47:53.199Z,100.00
2023-03-02T04:52:59.804Z,100.00
2023-03-02T04:58:06.809Z,100.00
2023-03-02T05:03:13.262Z,100.00
2023-03-02T05:08:19.255Z,100.00
2023-03-02T05:13:25.634Z,100.00
2023-03-02T05:18:31.532Z,100.00
2023-03-02T05:23:37.831Z,100.00
2023-03-02T05:28:44.110Z,100.00
2023-03-02T05:33:49.921Z,100.00
2023-03-02T05:38:56.250Z,100.00
2023-03-02T05:44:02.702Z,100.00
2023-03-02T05:49:08.628Z,100.00
2023-03-02T05:54:16.185Z,100.00
2023-03-02T05:59:21.817Z,100.00
2023-03-02T06:04:28.145Z,100.00
2023-03-02T06:09:34.290Z,100.00
2023-03-02T06:14:42.353Z,100.00
2023-03-02T06:19:48.240Z,100.00
2023-03-02T06:24:57.587Z,100.00
2023-03-02T06:30:03.821Z,100.00
2023-03-02T06:35:11.335Z,100.00
2023-03-02T06:40:18.021Z,100.00
2023-03-02T06:45:24.679Z,100.00
2023-03-02T06:50:31.048Z,100.00
2023-03-02T06:55:37.612Z,100.00
2023-03-02T07:00:44.091Z,100.00
2023-03-02T07:05:52.210Z,100.00
2023-03-02T07:10:59.209Z,100.00
2023-03-02T07:16:11.577Z,100.00
2023-03-02T07:21:21.146Z,100.00
2023-03-02T07:26:28.083Z,100.00
2023-03-02T07:31:35.576Z,100.00
2023-03-02T07:36:42.963Z,100.00
2023-03-02T07:41:50.640Z,100.00
2023-03-02T07:47:01.069Z,100.00
2023-03-02T07:52:08.372Z,100.00
2023-03-02T07:57:16.501Z,100.00
2023-03-02T08:02:25.739Z,100.00
2023-03-02T08:07:32.456Z,100.00
2023-03-02T08:12:39.326Z,100.00
2023-03-02T08:17:45.705Z,100.00
2023-03-02T08:22:52.577Z,100.00
2023-03-02T08:27:59.748Z,100.00
2023-03-02T08:33:07.366Z,100.00
2023-03-02T08:38:13.769Z,100.00
2023-03-02T08:43:20.998Z,100.00
2023-03-02T08:48:28.996Z,100.00
2023-03-02T08:53:37.127Z,100.00
2023-03-02T08:58:43.516Z,100.00
2023-03-02T09:03:50.194Z,100.00
2023-03-02T09:08:56.708Z,100.00
2023-03-02T09:14:03.639Z,100.00
2023-03-02T09:19:09.963Z,100.00
2023-03-02T09:24:17.785Z,100.00
2023-03-02T09:29:23.672Z,100.00
2023-03-02T09:34:30.342Z,100.00
2023-03-02T09:39:37.629Z,100.00
2023-03-02T09:45:21.434Z,100.00
2023-03-02T09:50:33.822Z,100.00
2023-03-02T09:55:40.693Z,100.00
2023-03-02T10:00:48.154Z,100.00
2023-03-02T10:05:56.080Z,100.00
2023-03-02T10:11:12.206Z,100.00
2023-03-02T10:16:31.669Z,99.80
2023-03-02T10:21:43.103Z,99.87
2023-03-02T10:26:49.774Z,100.00
2023-03-02T10:32:04.188Z,100.00
2023-03-02T10:37:17.011Z,99.99
2023-03-02T10:42:28.830Z,99.79
2023-03-02T10:47:34.862Z,99.48
2023-03-02T10:52:59.483Z,99.92
2023-03-02T10:58:20.285Z,100.00
2023-03-02T11:03:27.600Z,100.00
2023-03-02T11:08:33.577Z,99.26
2023-03-02T11:13:41.298Z,99.32
2023-03-02T11:18:52.755Z,99.62
2023-03-02T11:24:06.040Z,100.00
2023-03-02T11:29:22.948Z,99.93
2023-03-02T11:34:34.953Z,99.97
2023-03-02T11:40:00.141Z,99.02
2023-03-02T11:45:20.960Z,98.68
2023-03-02T11:50:27.440Z,97.62
2023-03-02T11:55:39.787Z,95.76
2023-03-02T12:00:46.669Z,95.29
2023-03-02T12:06:06.063Z,95.59
2023-03-02T12:11:34.141Z,94.83
2023-03-02T12:16:41.738Z,94.99
2023-03-02T12:21:58.570Z,94.54
2023-03-02T12:27:09.561Z,93.95
2023-03-02T12:32:25.613Z,93.69
2023-03-02T12:37:38.526Z,91.38
2023-03-02T12:43:00.673Z,88.65
2023-03-02T12:48:24.149Z,86.55
2023-03-02T12:53:30.672Z,85.54
2023-03-02T12:58:37.105Z,84.32
2023-03-02T13:03:50.006Z,83.47
2023-03-02T13:08:59.142Z,83.77
2023-03-02T13:14:21.147Z,83.88
2023-03-02T13:19:30.778Z,84.27
2023-03-02T13:24:50.450Z,84.53
2023-03-02T13:30:08.750Z,83.73
2023-03-02T13:35:26.454Z,83.24
2023-03-02T13:40:42.886Z,83.75
2023-03-02T13:45:56.218Z,83.52
2023-03-02T13:51:14.497Z,82.92
2023-03-02T13:56:23.748Z,82.78
2023-03-02T14:01:30.575Z,82.76
2023-03-02T14:06:38.489Z,82.73
2023-03-02T14:11:49.920Z,82.79
2023-03-02T14:16:56.543Z,82.84
2023-03-02T14:22:03.657Z,82.87
2023-03-02T14:27:13.741Z,81.67
2023-03-02T14:32:21.852Z,80.46
2023-03-02T14:37:33.238Z,80.13
2023-03-02T14:42:41.357Z,80.16
2023-03-02T14:47:49.075Z,80.59
2023-03-02T14:52:58.099Z,80.35
2023-03-02T14:58:13.529Z,80.01
2023-03-02T15:03:25.653Z,80.05
2023-03-02T15:08:33.056Z,80.01
2023-03-02T15:13:38.961Z,79.82
2023-03-02T15:18:45.109Z,79.66
2023-03-02T15:23:51.651Z,79.81
2023-03-02T15:28:57.923Z,80.07
2023-03-02T15:34:04.078Z,80.03
2023-03-02T15:39:14.406Z,80.13
2023-03-02T15:44:23.093Z,80.23
2023-03-02T15:49:32.233Z,80.24
2023-03-02T15:54:38.110Z,80.22
2023-03-02T15:59:44.732Z,80.07
2023-03-02T16:04:51.097Z,80.15
2023-03-02T16:09:57.807Z,80.41
2023-03-02T16:15:04.401Z,80.75
2023-03-02T16:20:13.115Z,81.46
2023-03-02T16:25:19.551Z,82.50
2023-03-02T16:30:25.449Z,83.37
2023-03-02T16:35:33.299Z,84.09
2023-03-02T16:40:40.229Z,84.90
2023-03-02T16:45:47.634Z,85.82
2023-03-02T16:50:58.378Z,86.31
2023-03-02T16:56:04.853Z,86.83
2023-03-02T17:01:13.172Z,87.73
2023-03-02T17:06:22.644Z,88.23
2023-03-02T17:11:29.114Z,88.87
2023-03-02T17:16:34.751Z,89.82
2023-03-02T17:21:40.926Z,90.52
2023-03-02T17:26:47.281Z,91.42
2023-03-02T17:31:53.831Z,92.52
2023-03-02T17:37:00.787Z,93.09
2023-03-02T17:42:07.435Z,93.44
2023-03-02T17:47:15.572Z,93.66
2023-03-02T17:52:21.964Z,94.45
2023-03-02T17:57:28.486Z,94.54
2023-03-02T18:02:34.604Z,94.36
2023-03-02T18:07:40.475Z,94.55
2023-03-02T18:12:47.651Z,94.69
2023-03-02T18:17:53.722Z,94.97
2023-03-02T18:23:00.423Z,95.38
2023-03-02T18:28:07.517Z,95.83
2023-03-02T18:33:14.149Z,96.54
2023-03-02T18:38:20.520Z,97.56
2023-03-02T18:43:27.385Z,98.45
2023-03-02T18:48:34.384Z,98.06
2023-03-02T18:53:41.162Z,97.74
2023-03-02T18:58:48.595Z,97.66
2023-03-02T19:03:56.908Z,97.60
2023-03-02T19:09:03.013Z,97.91
2023-03-02T19:14:08.890Z,98.58
2023-03-02T19:19:15.191Z,98.95
2023-03-02T19:24:21.116Z,99.44
2023-03-02T19:29:28.578Z,99.93
2023-03-02T19:34:34.333Z,100.00
2023-03-02T19:39:40.618Z,99.64
2023-03-02T19:44:46.347Z,99.13
2023-03-02T19:49:52.121Z,99.24
2023-03-02T19:54:58.733Z,99.49
2023-03-02T20:00:06.791Z,99.11
2023-03-02T20:05:13.440Z,99.51
2023-03-02T20:10:28.748Z,99.76
2023-03-02T20:15:38.134Z,99.76
2023-03-02T20:20:45.629Z,100.00
2023-03-02T20:25:51.930Z,99.99
2023-03-02T20:31:00.494Z,99.92
2023-03-02T20:36:08.099Z,99.99
2023-03-02T20:41:15.590Z,100.00
2023-03-02T20:46:25.482Z,100.00
2023-03-02T20:51:32.469Z,100.00
2023-03-02T20:56:38.357Z,100.00
2023-03-02T21:01:44.979Z,100.00
2023-03-02T21:06:51.619Z,100.00
2023-03-02T21:11:58.942Z,100.00
2023-03-02T21:17:05.625Z,100.00
2023-03-02T21:22:11.519Z,100.00
2023-03-02T21:27:17.480Z,100.00
2023-03-02T21:32:23.330Z,100.00
2023-03-02T21:37:29.018Z,100.00
2023-03-02T21:42:34.846Z,100.00
2023-03-02T21:47:41.513Z,100.00
2023-03-02T21:52:47.152Z,100.00
2023-03-02T21:57:52.851Z,100.00
2023-03-02T22:02:58.728Z,100.00
2023-03-02T22:08:04.620Z,100.00
2023-03-02T22:13:21.993Z,100.00
2023-03-02T22:18:28.578Z,100.00
2023-03-02T22:23:34.562Z,100.00
2023-03-02T22:28:41.844Z,100.00
2023-03-02T22:33:48.374Z,100.00
2023-03-02T22:38:56.800Z,100.00
2023-03-02T22:44:03.157Z,100.00
2023-03-02T22:49:16.420Z,100.00
2023-03-02T22:54:30.900Z,100.00
2023-03-02T22:59:38.738Z,100.00
2023-03-02T23:04:45.579Z,100.00
2023-03-02T23:09:51.401Z,100.00
2023-03-02T23:14:59.090Z,100.00
2023-03-02T23:20:13.045Z,100.00
2023-03-02T23:25:19.463Z,100.00
2023-03-02T23:30:25.682Z,100.00
2023-03-02T23:35:31.478Z,100.00
2023-03-02T23:40:37.581Z,100.00
2023-03-02T23:45:43.500Z,100.00
2023-03-02T23:50:49.411Z,100.00
2023-03-02T23:55:56.266Z,100.00
